Time;durP1;ratioP1;P1;durP2;ratioP2;P2;SDS_P1;SDS_P2;PMS_P1;PMS_P2;Temp;Humidity;BMP_temperature;BMP_pressure;BME280_temperature;BME280_humidity;BME280_pressure;Samples;Min_cycle;Max_cycle;Signal;HPM_P1;HPM_P2
2022/08/05 00:01:41;;;;;;;5.50;5.00;;;25.80;86.50;;;;;;4993602;28;20191;-67
2022/08/05 00:04:07;;;;;;;5.30;5.00;;;25.80;85.40;;;;;;4988810;28;20195;-68
2022/08/05 00:06:33;;;;;;;6.40;5.90;;;25.90;87.70;;;;;;4992447;28;20648;-68
2022/08/05 00:08:59;;;;;;;6.00;5.60;;;26.00;87.80;;;;;;4991758;28;20176;-68
2022/08/05 00:11:25;;;;;;;5.77;5.27;;;26.00;88.50;;;;;;4993679;28;20186;-67
2022/08/05 00:13:51;;;;;;;5.77;5.37;;;25.80;89.40;;;;;;4988078;28;20467;-67
2022/08/05 00:16:16;;;;;;;5.70;5.30;;;25.80;88.70;;;;;;4988401;28;20669;-68
2022/08/05 00:18:45;;;;;;;4.97;4.57;;;25.70;90.10;;;;;;4990770;28;20207;-68
2022/08/05 00:21:12;;;;;;;6.87;6.40;;;25.70;90.10;;;;;;4991145;28;20183;-68
2022/08/05 00:23:38;;;;;;;5.53;5.20;;;25.70;90.00;;;;;;4987849;28;20923;-67
2022/08/05 00:26:04;;;;;;;6.13;5.63;;;25.70;90.40;;;;;;4995659;28;20445;-67
2022/08/05 00:28:29;;;;;;;5.90;5.50;;;25.70;90.20;;;;;;4991415;28;20541;-67
2022/08/05 00:30:55;;;;;;;6.87;5.50;;;25.60;90.80;;;;;;4991017;28;20179;-67
2022/08/05 00:33:20;;;;;;;6.73;6.07;;;25.60;90.80;;;;;;4992479;28;20203;-67
2022/08/05 00:35:46;;;;;;;5.83;5.43;;;25.60;91.60;;;;;;4992716;28;20260;-67
2022/08/05 00:38:11;;;;;;;6.00;5.60;;;25.60;91.50;;;;;;4982222;28;20696;-67
2022/08/05 00:40:50;;;;;;;5.93;5.47;;;25.60;91.30;;;;;;4988403;28;20188;-67
2022/08/05 00:43:15;;;;;;;5.37;5.07;;;25.40;91.00;;;;;;4991613;28;20579;-67
2022/08/05 00:45:42;;;;;;;6.63;6.13;;;25.40;91.10;;;;;;4992363;28;20446;-68
2022/08/05 00:48:09;;;;;;;6.60;6.10;;;25.30;91.70;;;;;;4989721;28;20555;-68
2022/08/05 00:50:35;;;;;;;6.17;5.63;;;25.30;91.90;;;;;;4992676;28;20450;-67
2022/08/05 00:53:01;;;;;;;10.60;5.10;;;25.30;92.60;;;;;;4991542;28;20454;-67
2022/08/05 00:55:27;;;;;;;6.20;5.60;;;25.30;91.90;;;;;;4989737;28;20458;-67
2022/08/05 00:57:52;;;;;;;6.57;6.10;;;25.30;91.10;;;;;;4984362;28;20575;-67
2022/08/05 01:00:18;;;;;;;6.13;5.70;;;25.30;91.50;;;;;;4999566;28;20178;-68
2022/08/05 01:02:43;;;;;;;6.27;5.77;;;25.00;93.90;;;;;;5000416;28;20557;-67
2022/08/05 01:05:09;;;;;;;5.63;5.23;;;24.60;94.00;;;;;;4990486;28;20672;-68
2022/08/05 01:07:34;;;;;;;6.50;6.10;;;24.40;93.90;;;;;;4999769;28;20202;-69
2022/08/05 01:10:01;;;;;;;6.23;5.63;;;24.30;94.70;;;;;;4991275;28;20187;-68
2022/08/05 01:12:27;;;;;;;6.67;5.30;;;24.30;94.70;;;;;;5001609;28;20180;-68
2022/08/05 01:15:03;;;;;;;5.10;4.60;;;24.30;93.10;;;;;;5001236;28;21012;-68
2022/08/05 01:17:39;;;;;;;6.17;4.73;;;24.40;90.30;;;;;;5001487;28;20544;-68
2022/08/05 01:20:25;;;;;;;4.60;4.30;;;24.50;90.50;;;;;;5002919;28;20504;-68
2022/08/05 01:23:00;;;;;;;7.00;4.40;;;24.50;89.20;;;;;;4994740;28;20951;-68
2022/08/05 01:25:50;;;;;;;5.23;4.20;;;24.50;90.10;;;;;;4994506;28;20449;-68
2022/08/05 01:28:32;;;;;;;5.00;4.23;;;24.50;90.00;;;;;;5000808;28;20441;-68
2022/08/05 01:31:07;;;;;;;6.53;3.90;;;24.70;90.10;;;;;;4996496;28;20548;-68
2022/08/05 01:33:40;;;;;;;4.50;4.10;;;24.70;90.50;;;;;;5002351;28;20497;-68
2022/08/05 01:36:12;;;;;;;5.20;4.10;;;24.80;90.80;;;;;;5003423;28;20720;-68
2022/08/05 01:38:37;;;;;;;4.90;4.43;;;24.80;91.10;;;;;;4999161;28;20466;-69
2022/08/05 01:41:04;;;;;;;4.90;4.40;;;24.80;91.20;;;;;;4999016;28;20472;-68
2022/08/05 01:43:31;;;;;;;5.37;4.80;;;24.80;91.70;;;;;;5001724;28;20199;-68
2022/08/05 01:45:57;;;;;;;4.80;4.30;;;24.80;92.00;;;;;;5003135;28;20924;-67
2022/08/05 01:48:25;;;;;;;4.23;3.93;;;24.70;92.50;;;;;;5001197;28;20426;-67
2022/08/05 01:50:51;;;;;;;9.20;4.70;;;24.70;92.40;;;;;;4995240;28;20446;-68
2022/08/05 01:53:21;;;;;;;8.23;4.87;;;24.70;92.80;;;;;;4998669;28;20462;-68
2022/08/05 01:55:49;;;;;;;5.77;4.23;;;24.70;93.20;;;;;;4991237;28;20533;-67
2022/08/05 01:58:15;;;;;;;6.73;4.00;;;24.60;93.80;;;;;;4988571;28;20463;-68
2022/08/05 02:00:47;;;;;;;5.83;4.07;;;24.60;93.80;;;;;;4990044;28;20435;-67
2022/08/05 02:03:31;;;;;;;6.07;4.20;;;24.60;94.50;;;;;;5006664;28;20450;-67
2022/08/05 02:05:58;;;;;;;4.93;4.53;;;24.60;94.70;;;;;;4990893;28;20441;-68
2022/08/05 02:08:23;;;;;;;6.87;4.50;;;24.60;94.70;;;;;;5000239;28;20438;-67
2022/08/05 02:10:54;;;;;;;4.40;3.83;;;24.60;95.50;;;;;;5001743;28;20447;-68
2022/08/05 02:13:32;;;;;;;6.73;4.77;;;24.50;95.60;;;;;;5001004;28;20207;-69
2022/08/05 02:16:33;;;;;;;5.37;4.50;;;24.60;95.50;;;;;;5003079;28;20430;-68
2022/08/05 02:19:10;;;;;;;7.90;4.73;;;24.60;95.80;;;;;;4993387;28;20481;-67
2022/08/05 02:21:41;;;;;;;12.57;5.17;;;24.50;96.20;;;;;;5012550;28;20460;-66
2022/08/05 02:24:10;;;;;;;5.83;5.03;;;24.50;96.60;;;;;;5015332;28;20466;-68
2022/08/05 02:26:42;;;;;;;9.37;4.50;;;24.50;97.40;;;;;;5016474;28;20445;-68
2022/08/05 02:29:11;;;;;;;4.47;4.07;;;24.50;97.20;;;;;;5013107;28;20450;-68
2022/08/05 02:31:37;;;;;;;10.67;5.10;;;24.50;97.10;;;;;;5002889;28;20457;-68
2022/08/05 02:34:12;;;;;;;8.40;4.37;;;24.50;97.40;;;;;;4992507;28;20808;-67
2022/08/05 02:36:42;;;;;;;5.90;4.60;;;24.50;97.90;;;;;;4993360;28;20446;-67
2022/08/05 02:39:09;;;;;;;11.20;5.20;;;24.40;98.40;;;;;;4986624;28;20466;-68
2022/08/05 02:41:37;;;;;;;7.67;4.43;;;24.40;98.80;;;;;;5000705;28;20462;-67
2022/08/05 02:44:08;;;;;;;7.40;5.17;;;24.40;99.50;;;;;;4994113;28;20454;-66
2022/08/05 02:46:35;;;;;;;4.77;4.23;;;24.40;99.90;;;;;;4991667;28;20974;-67
2022/08/05 02:49:01;;;;;;;4.83;4.23;;;24.40;99.90;;;;;;4981970;28;20449;-67
2022/08/05 02:51:27;;;;;;;5.33;4.77;;;24.30;99.90;;;;;;4990877;28;20496;-68
2022/08/05 02:53:54;;;;;;;5.17;4.07;;;24.30;99.90;;;;;;4986318;28;20482;-68
2022/08/05 02:56:20;;;;;;;11.73;4.40;;;24.30;99.90;;;;;;5009432;28;20470;-68
2022/08/05 02:58:46;;;;;;;6.20;4.63;;;24.30;99.90;;;;;;4999440;28;20462;-67
2022/08/05 03:01:23;;;;;;;6.10;4.57;;;24.30;99.90;;;;;;4991655;28;20462;-67
2022/08/05 03:03:53;;;;;;;9.47;4.40;;;24.30;99.90;;;;;;4986875;28;20517;-67
2022/08/05 03:06:20;;;;;;;6.53;5.23;;;24.30;99.90;;;;;;4987496;28;20446;-67
2022/08/05 03:08:47;;;;;;;7.83;5.30;;;24.30;99.90;;;;;;4991769;28;20438;-67
2022/08/05 03:11:21;;;;;;;5.37;4.90;;;24.30;99.90;;;;;;4992330;28;20447;-67
2022/08/05 03:13:47;;;;;;;8.80;5.30;;;24.30;99.90;;;;;;4983131;28;20462;-68
2022/08/05 03:16:13;;;;;;;5.00;4.20;;;24.30;99.90;;;;;;5000903;28;20809;-67
2022/08/05 03:18:38;;;;;;;5.40;5.00;;;24.30;99.90;;;;;;4991872;28;20561;-67
2022/08/05 03:21:05;;;;;;;7.07;4.63;;;24.30;99.90;;;;;;4992981;28;20186;-67
2022/08/05 03:23:32;;;;;;;7.37;4.90;;;24.20;99.90;;;;;;4993198;28;20195;-68
2022/08/05 03:25:58;;;;;;;9.60;5.10;;;24.20;99.90;;;;;;4988778;28;20453;-67
2022/08/05 03:28:24;;;;;;;6.33;5.07;;;24.20;99.90;;;;;;4991731;28;20454;-68
2022/08/05 03:30:50;;;;;;;8.57;5.67;;;24.10;99.90;;;;;;4993465;28;20199;-68
2022/08/05 03:33:16;;;;;;;4.90;4.50;;;24.00;99.90;;;;;;4988923;28;20494;-67
2022/08/05 03:35:44;;;;;;;6.33;4.70;;;23.90;99.90;;;;;;4992644;28;20184;-67
2022/08/05 03:38:11;;;;;;;11.67;4.97;;;23.90;99.90;;;;;;4990865;28;20523;-68
2022/08/05 03:40:44;;;;;;;12.60;5.63;;;23.90;99.90;;;;;;4991533;28;20457;-67
2022/08/05 03:43:10;;;;;;;7.80;5.03;;;24.00;99.90;;;;;;4994317;28;20439;-68
2022/08/05 03:45:35;;;;;;;8.23;5.70;;;23.90;99.90;;;;;;4997225;28;20553;-67
2022/08/05 03:48:01;;;;;;;6.87;4.87;;;23.90;99.90;;;;;;4992618;28;20525;-67
2022/08/05 03:50:39;;;;;;;9.37;6.43;;;23.90;99.90;;;;;;4992001;28;20575;-68
2022/08/05 03:53:12;;;;;;;9.20;5.33;;;23.90;99.90;;;;;;4988189;28;20195;-67
2022/08/05 03:55:50;;;;;;;7.00;5.20;;;23.90;99.90;;;;;;4992060;28;20537;-70
2022/08/05 03:58:21;;;;;;;7.57;5.20;;;23.80;99.90;;;;;;4987744;28;20516;-70
2022/08/05 04:00:48;;;;;;;6.50;5.20;;;23.80;99.90;;;;;;4990079;28;20439;-70
2022/08/05 04:03:16;;;;;;;17.10;6.10;;;23.80;99.90;;;;;;4983839;28;20462;-70
2022/08/05 04:05:43;;;;;;;9.80;5.90;;;23.80;99.90;;;;;;4984618;28;20830;-70
2022/08/05 04:08:09;;;;;;;7.10;5.50;;;23.80;99.90;;;;;;4993770;28;20451;-70
2022/08/05 04:10:36;;;;;;;6.40;5.80;;;23.70;99.90;;;;;;4992738;28;20533;-70
2022/08/05 04:13:02;;;;;;;6.80;5.93;;;23.70;99.90;;;;;;4993898;28;20458;-70
2022/08/05 04:15:27;;;;;;;7.20;6.50;;;23.60;99.90;;;;;;4991574;28;20630;-70
2022/08/05 04:17:53;;;;;;;9.23;5.67;;;23.50;99.90;;;;;;4990976;28;20466;-70
2022/08/05 04:20:21;;;;;;;6.50;5.73;;;23.40;99.90;;;;;;4991300;28;20673;-70
2022/08/05 04:22:47;;;;;;;7.97;6.60;;;23.20;99.90;;;;;;4990394;28;20509;-70
2022/08/05 04:25:13;;;;;;;6.30;5.70;;;23.20;99.90;;;;;;4992072;28;20458;-70
2022/08/05 04:27:39;;;;;;;10.70;5.97;;;23.20;99.90;;;;;;4991943;28;20246;-70
2022/08/05 04:30:06;;;;;;;8.70;6.30;;;23.30;99.90;;;;;;4989319;28;20233;-70
2022/08/05 04:32:31;;;;;;;7.80;6.07;;;23.30;99.90;;;;;;4992880;28;20241;-70
2022/08/05 04:34:57;;;;;;;7.47;6.13;;;23.30;99.90;;;;;;4990965;28;20470;-70
2022/08/05 04:37:22;;;;;;;11.20;5.77;;;23.30;99.90;;;;;;4991562;28;20200;-70
2022/08/05 04:39:48;;;;;;;8.70;6.00;;;23.40;99.90;;;;;;4985118;28;20175;-70
2022/08/05 04:42:14;;;;;;;5.90;5.40;;;23.50;99.90;;;;;;4993019;28;20356;-70
2022/08/05 04:44:39;;;;;;;6.07;5.47;;;23.50;99.90;;;;;;4990710;28;20466;-70
2022/08/05 04:47:05;;;;;;;6.30;5.70;;;23.50;99.90;;;;;;4991989;28;20305;-70
2022/08/05 04:49:31;;;;;;;10.60;5.90;;;23.50;99.90;;;;;;4991390;28;20183;-70
2022/08/05 04:51:56;;;;;;;7.40;5.00;;;23.50;99.90;;;;;;4999545;28;20176;-70
2022/08/05 04:54:25;;;;;;;5.63;5.13;;;23.40;99.90;;;;;;4990541;28;20296;-70
2022/08/05 04:56:54;;;;;;;5.83;5.20;;;23.40;99.90;;;;;;4991508;28;20315;-70
2022/08/05 04:59:21;;;;;;;10.17;5.70;;;23.40;99.90;;;;;;4994623;28;20447;-70
2022/08/05 05:01:57;;;;;;;7.63;5.57;;;23.40;99.90;;;;;;4994740;28;20449;-70
2022/08/05 05:04:23;;;;;;;6.30;5.70;;;23.30;99.90;;;;;;4991120;28;20469;-70
2022/08/05 05:06:48;;;;;;;9.53;5.77;;;23.20;99.90;;;;;;4989468;28;20439;-70
2022/08/05 05:09:14;;;;;;;7.90;5.73;;;23.30;99.90;;;;;;4991134;28;20183;-70
2022/08/05 05:11:39;;;;;;;7.87;5.80;;;23.40;99.90;;;;;;4993273;28;20179;-70
2022/08/05 05:14:05;;;;;;;9.07;6.40;;;23.50;99.90;;;;;;4997908;28;20200;-70
2022/08/05 05:16:31;;;;;;;6.20;5.60;;;23.60;99.90;;;;;;4991683;28;20193;-70
2022/08/05 05:18:57;;;;;;;6.20;4.93;;;23.70;99.90;;;;;;4999089;28;20610;-70
2022/08/05 05:21:22;;;;;;;11.10;5.83;;;23.90;99.90;;;;;;4998098;28;20477;-70
2022/08/05 05:23:48;;;;;;;6.00;4.87;;;24.20;99.90;;;;;;4997977;28;20203;-70
2022/08/05 05:26:13;;;;;;;7.70;5.43;;;24.40;99.90;;;;;;4995493;28;20712;-70
2022/08/05 05:28:39;;;;;;;7.73;5.50;;;24.50;99.90;;;;;;5001007;28;20186;-70
2022/08/05 05:31:04;;;;;;;8.03;5.67;;;24.60;99.90;;;;;;5003273;28;20183;-70
2022/08/05 05:33:30;;;;;;;8.33;6.10;;;24.80;99.90;;;;;;5000217;28;20230;-70
2022/08/05 05:35:56;;;;;;;11.50;5.90;;;25.00;99.90;;;;;;4993379;28;20218;-70
2022/08/05 05:38:21;;;;;;;10.00;5.57;;;25.20;99.90;;;;;;4991850;28;20728;-70
2022/08/05 05:40:47;;;;;;;6.33;5.73;;;25.20;99.90;;;;;;4975325;28;20237;-70
2022/08/05 05:43:12;;;;;;;6.13;5.60;;;25.40;99.90;;;;;;4961061;28;20207;-65
2022/08/05 05:45:38;;;;;;;8.27;5.77;;;25.50;99.90;;;;;;4985674;28;20879;-66
2022/08/05 05:48:06;;;;;;;8.60;5.50;;;25.60;99.90;;;;;;4991745;28;20178;-65
2022/08/05 05:50:32;;;;;;;8.37;6.30;;;25.80;99.90;;;;;;4986239;28;20203;-66
2022/08/05 05:52:57;;;;;;;5.63;5.00;;;25.90;99.90;;;;;;4983781;28;20450;-66
2022/08/05 05:55:23;;;;;;;11.80;6.57;;;25.90;99.90;;;;;;4987194;28;20489;-66
2022/08/05 05:57:48;;;;;;;8.23;6.00;;;25.80;99.90;;;;;;4990964;28;20245;-65
2022/08/05 06:00:17;;;;;;;7.33;6.40;;;26.00;99.90;;;;;;4989759;28;20199;-66
2022/08/05 06:02:43;;;;;;;6.43;6.03;;;26.10;99.90;;;;;;4995010;28;20186;-66
2022/08/05 06:05:11;;;;;;;7.20;5.50;;;26.20;99.90;;;;;;4996673;28;20549;-66
2022/08/05 06:07:37;;;;;;;7.83;6.60;;;26.30;99.90;;;;;;4999881;28;20948;-66
2022/08/05 06:10:04;;;;;;;7.20;6.30;;;26.50;99.90;;;;;;4989091;28;20549;-66
2022/08/05 06:12:30;;;;;;;7.00;5.27;;;26.50;99.90;;;;;;4994700;28;20187;-66
2022/08/05 06:14:55;;;;;;;8.07;5.27;;;26.60;99.90;;;;;;5000551;28;20465;-66
2022/08/05 06:17:21;;;;;;;6.20;5.70;;;26.70;99.90;;;;;;4992421;28;20217;-65
2022/08/05 06:19:46;;;;;;;6.80;5.90;;;26.80;99.90;;;;;;4985655;28;20271;-66
2022/08/05 06:22:22;;;;;;;6.50;5.90;;;26.80;99.90;;;;;;4992575;28;20180;-65
2022/08/05 06:24:47;;;;;;;6.10;5.30;;;26.80;99.90;;;;;;4992053;28;20194;-66
2022/08/05 06:27:13;;;;;;;7.80;5.50;;;27.00;99.90;;;;;;4987289;28;20462;-66
2022/08/05 06:29:38;;;;;;;9.70;5.57;;;27.20;99.50;;;;;;4987937;28;20550;-65
2022/08/05 06:32:04;;;;;;;7.50;5.57;;;27.40;99.00;;;;;;4979413;28;20179;-66
2022/08/05 06:34:30;;;;;;;6.23;5.50;;;27.50;98.40;;;;;;4990762;28;20206;-66
2022/08/05 06:36:55;;;;;;;8.03;6.10;;;27.60;98.40;;;;;;4994725;28;20172;-66
2022/08/05 06:39:21;;;;;;;5.43;4.80;;;27.90;97.60;;;;;;4993694;28;20214;-65
2022/08/05 06:41:48;;;;;;;5.90;5.30;;;28.20;97.00;;;;;;4986393;28;20638;-65
2022/08/05 06:44:13;;;;;;;7.67;4.80;;;28.40;96.30;;;;;;4989553;28;20273;-66
2022/08/05 06:46:39;;;;;;;7.47;5.50;;;28.80;95.70;;;;;;4987026;28;20430;-68
2022/08/05 06:49:04;;;;;;;4.83;4.50;;;29.00;95.00;;;;;;4985125;28;20180;-60
2022/08/05 06:51:30;;;;;;;5.67;5.17;;;28.90;94.00;;;;;;4981960;28;20194;-60
2022/08/05 06:53:57;;;;;;;9.30;4.47;;;29.00;93.90;;;;;;4985982;28;20219;-60
2022/08/05 06:56:23;;;;;;;5.00;4.60;;;29.10;92.90;;;;;;4988518;28;20283;-60
2022/08/05 06:58:48;;;;;;;6.33;4.40;;;29.20;92.30;;;;;;4989244;28;20820;-60
2022/08/05 07:01:14;;;;;;;6.03;4.40;;;29.30;91.90;;;;;;4988485;28;20572;-60
2022/08/05 07:03:39;;;;;;;4.83;4.50;;;29.20;92.50;;;;;;4989643;28;20264;-61
2022/08/05 07:06:05;;;;;;;6.23;4.67;;;29.60;91.80;;;;;;4994162;28;20171;-60
2022/08/05 07:08:31;;;;;;;5.07;4.50;;;29.50;90.00;;;;;;4989241;28;20187;-60
2022/08/05 07:10:56;;;;;;;8.40;3.70;;;29.50;90.10;;;;;;4989747;28;20183;-60
2022/08/05 07:18:50;;;;;;;4.83;3.60;;;30.00;87.70;;;;;;4984843;28;20862;-61
2022/08/05 07:21:16;;;;;;;5.63;3.80;;;30.30;85.70;;;;;;4988214;28;20451;-61
2022/08/05 07:23:41;;;;;;;3.80;3.50;;;30.50;84.30;;;;;;4985437;28;20199;-61
2022/08/05 07:26:07;;;;;;;4.30;3.97;;;30.20;82.00;;;;;;4989381;28;20714;-60
2022/08/05 07:28:32;;;;;;;6.40;4.00;;;29.90;82.00;;;;;;4985685;28;20187;-60
2022/08/05 07:30:58;;;;;;;3.50;3.20;;;30.00;82.10;;;;;;4985880;28;20199;-60
2022/08/05 07:33:23;;;;;;;3.10;2.90;;;30.00;80.00;;;;;;4991546;28;20211;-60
2022/08/05 07:35:49;;;;;;;4.07;3.87;;;30.20;78.80;;;;;;4986892;28;20234;-60
2022/08/05 07:38:16;;;;;;;4.13;3.63;;;30.20;78.00;;;;;;4991873;28;20619;-61
2022/08/05 07:40:42;;;;;;;4.50;3.90;;;30.40;78.20;;;;;;4987138;28;20186;-61
2022/08/05 07:43:08;;;;;;;3.60;3.30;;;30.50;77.20;;;;;;4989283;28;20847;-61
2022/08/05 07:45:34;;;;;;;4.03;3.63;;;30.60;77.40;;;;;;4987677;28;20431;-61
2022/08/05 07:47:59;;;;;;;3.57;3.27;;;30.60;77.70;;;;;;4992569;28;20556;-60
2022/08/05 07:50:25;;;;;;;4.50;3.90;;;31.00;76.10;;;;;;4983190;28;20218;-61
2022/08/05 07:52:50;;;;;;;4.70;3.83;;;31.60;75.00;;;;;;4990156;28;20275;-60
2022/08/05 07:55:16;;;;;;;4.17;3.17;;;32.00;74.20;;;;;;4990637;28;20844;-59
2022/08/05 07:57:41;;;;;;;4.93;3.10;;;32.30;71.00;;;;;;4986074;28;20215;-61
2022/08/05 08:00:07;;;;;;;4.47;3.47;;;32.30;68.90;;;;;;4988505;28;20192;-60
2022/08/05 08:02:33;;;;;;;3.90;3.50;;;32.60;67.90;;;;;;4988430;28;20282;-61
2022/08/05 08:04:59;;;;;;;3.93;3.63;;;32.20;67.80;;;;;;4987454;28;20541;-61
2022/08/05 08:07:25;;;;;;;3.30;3.10;;;32.60;66.40;;;;;;4989944;28;20667;-60
2022/08/05 08:09:51;;;;;;;3.50;3.30;;;32.40;64.70;;;;;;4984824;28;20439;-60
2022/08/05 08:12:16;;;;;;;8.90;3.10;;;32.50;65.30;;;;;;4985612;28;20210;-60
2022/08/05 08:14:42;;;;;;;3.30;3.00;;;32.60;63.70;;;;;;4990590;28;20486;-60
2022/08/05 08:17:09;;;;;;;4.03;2.90;;;32.60;63.70;;;;;;4987050;28;20180;-60
2022/08/05 08:19:36;;;;;;;4.10;3.10;;;32.60;62.90;;;;;;4989155;28;20693;-59
2022/08/05 08:22:01;;;;;;;3.30;3.00;;;32.80;62.90;;;;;;4986641;28;20509;-61
2022/08/05 08:24:28;;;;;;;3.23;3.03;;;33.10;61.50;;;;;;4991671;28;20454;-61
2022/08/05 08:26:53;;;;;;;3.33;3.03;;;33.40;61.20;;;;;;4983533;28;20178;-60
2022/08/05 08:29:19;;;;;;;5.93;3.30;;;33.30;61.00;;;;;;4993706;28;20443;-61
2022/08/05 08:31:44;;;;;;;3.80;3.50;;;33.60;61.20;;;;;;4984460;28;20184;-60
2022/08/05 08:34:10;;;;;;;3.53;3.23;;;33.50;59.50;;;;;;4988775;28;20235;-60
2022/08/05 08:36:35;;;;;;;3.80;3.53;;;33.50;59.70;;;;;;4991432;28;20198;-60
2022/08/05 08:39:01;;;;;;;3.20;3.00;;;33.90;58.80;;;;;;4987796;28;20203;-60
2022/08/05 08:41:28;;;;;;;3.20;2.93;;;33.70;58.50;;;;;;4989873;28;20234;-60
2022/08/05 08:43:55;;;;;;;3.67;3.37;;;33.60;59.10;;;;;;4990627;28;20218;-60
2022/08/05 08:46:22;;;;;;;3.60;3.10;;;33.20;59.20;;;;;;4987956;28;20545;-60
2022/08/05 08:48:49;;;;;;;5.00;3.10;;;33.30;59.00;;;;;;4988062;28;20475;-61
2022/08/05 08:51:17;;;;;;;2.70;2.60;;;33.70;58.30;;;;;;4986203;28;20446;-61
2022/08/05 08:53:43;;;;;;;2.97;2.77;;;34.30;57.00;;;;;;4996752;28;20482;-61
2022/08/05 08:56:09;;;;;;;2.87;2.67;;;34.20;56.40;;;;;;4989353;28;20454;-61
2022/08/05 08:58:34;;;;;;;2.77;2.57;;;34.40;56.00;;;;;;4990635;28;20529;-60
2022/08/05 09:01:00;;;;;;;2.90;2.70;;;34.60;54.90;;;;;;4987687;28;20206;-60
2022/08/05 09:03:27;;;;;;;3.40;3.20;;;34.40;54.20;;;;;;4993868;28;20211;-61
2022/08/05 09:05:53;;;;;;;3.40;3.03;;;34.60;53.90;;;;;;4989334;28;20443;-61
2022/08/05 09:08:18;;;;;;;3.67;3.37;;;34.50;53.80;;;;;;4989016;28;20457;-61
2022/08/05 09:10:44;;;;;;;2.80;2.70;;;34.50;53.80;;;;;;4989031;28;20190;-61
2022/08/05 09:13:14;;;;;;;3.67;3.43;;;35.00;54.00;;;;;;4989980;28;20211;-61
2022/08/05 09:15:40;;;;;;;3.63;2.80;;;35.40;53.30;;;;;;4991852;28;20188;-60
2022/08/05 09:18:09;;;;;;;3.00;2.90;;;35.80;52.20;;;;;;4990292;28;20467;-60
2022/08/05 09:20:35;;;;;;;3.60;3.40;;;35.30;51.50;;;;;;4986908;28;20195;-60
2022/08/05 09:23:02;;;;;;;3.90;3.60;;;35.50;51.00;;;;;;4988906;28;20783;-61
2022/08/05 09:25:28;;;;;;;2.70;2.50;;;35.60;50.60;;;;;;4992314;28;20476;-61
2022/08/05 09:27:54;;;;;;;3.70;3.40;;;35.40;50.30;;;;;;4986526;28;20775;-60
2022/08/05 09:30:20;;;;;;;3.50;3.20;;;35.50;50.70;;;;;;4985004;28;20581;-61
2022/08/05 09:32:45;;;;;;;3.67;3.23;;;36.20;49.90;;;;;;4986181;28;20262;-61
2022/08/05 09:35:14;;;;;;;2.90;2.70;;;37.10;48.80;;;;;;4986405;28;20199;-60
2022/08/05 09:37:50;;;;;;;2.80;2.60;;;38.00;47.70;;;;;;4988865;28;20215;-61
2022/08/05 09:40:29;;;;;;;2.97;2.80;;;38.80;46.20;;;;;;4981863;28;20462;-61
2022/08/05 09:42:55;;;;;;;3.33;3.03;;;39.10;45.00;;;;;;4991037;28;20539;-61
2022/08/05 09:45:34;;;;;;;3.40;3.20;;;38.00;45.10;;;;;;4988701;28;20506;-60
2022/08/05 09:48:16;;;;;;;3.90;3.60;;;37.40;45.50;;;;;;4990216;28;20179;-61
2022/08/05 09:50:47;;;;;;;2.80;2.60;;;36.90;46.10;;;;;;4982333;28;20457;-60
2022/08/05 09:53:12;;;;;;;2.70;2.50;;;37.40;45.80;;;;;;4989523;28;20454;-60
2022/08/05 09:55:38;;;;;;;4.40;3.03;;;37.90;45.00;;;;;;4988150;28;20461;-60
2022/08/05 09:58:11;;;;;;;3.07;2.60;;;38.40;44.50;;;;;;4989590;28;20282;-60
2022/08/05 10:00:37;;;;;;;4.17;3.70;;;38.00;44.40;;;;;;4989616;28;20570;-60
2022/08/05 10:03:08;;;;;;;2.97;2.63;;;38.20;44.10;;;;;;4985987;28;20434;-60
2022/08/05 10:05:35;;;;;;;3.13;2.97;;;37.60;44.70;;;;;;4989705;28;20203;-61
2022/08/05 10:08:05;;;;;;;3.87;3.50;;;38.60;44.20;;;;;;4986043;28;20467;-60
2022/08/05 10:10:38;;;;;;;3.53;3.23;;;39.80;42.90;;;;;;4998049;28;20414;-61
2022/08/05 10:13:05;;;;;;;3.97;2.80;;;40.90;41.60;;;;;;4991817;28;20430;-61
2022/08/05 10:15:35;;;;;;;3.17;2.90;;;42.10;40.30;;;;;;4993850;28;20430;-61
2022/08/05 10:18:33;;;;;;;2.70;2.53;;;42.40;38.80;;;;;;4992064;28;20472;-61
2022/08/05 10:21:04;;;;;;;3.43;3.13;;;42.10;38.40;;;;;;4986459;28;20525;-61
2022/08/05 10:23:39;;;;;;;2.93;2.77;;;43.40;38.00;;;;;;4990895;28;20865;-61
2022/08/05 10:26:08;;;;;;;3.40;3.07;;;44.10;35.80;;;;;;4990886;28;20557;-61
2022/08/05 10:28:34;;;;;;;3.20;2.90;;;44.10;35.80;;;;;;4991121;28;20419;-61
2022/08/05 10:31:00;;;;;;;2.60;2.50;;;44.80;34.90;;;;;;4989867;28;20430;-59
2022/08/05 10:33:29;;;;;;;4.30;2.90;;;44.70;34.10;;;;;;4995073;28;20496;-59
2022/08/05 10:35:56;;;;;;;2.83;2.73;;;44.30;33.90;;;;;;4995740;28;20982;-59
2022/08/05 10:38:24;;;;;;;3.57;3.40;;;44.40;33.40;;;;;;4992417;28;20496;-59
2022/08/05 10:40:50;;;;;;;3.60;3.13;;;44.90;33.50;;;;;;4992533;28;20496;-59
2022/08/05 10:43:47;;;;;;;3.23;3.03;;;45.90;32.70;;;;;;4995646;28;20446;-59
2022/08/05 10:46:15;;;;;;;3.20;2.90;;;44.50;31.60;;;;;;4993878;28;20431;-59
2022/08/05 10:48:46;;;;;;;3.17;3.00;;;42.60;33.10;;;;;;4994991;28;20431;-59
2022/08/05 10:51:20;;;;;;;5.07;2.50;;;41.10;33.60;;;;;;4991597;28;20433;-59
2022/08/05 10:53:57;;;;;;;3.23;3.03;;;40.80;34.00;;;;;;4994213;28;20878;-60
2022/08/05 10:56:28;;;;;;;2.90;2.70;;;40.90;33.30;;;;;;4995203;28;20426;-61
2022/08/05 10:58:56;;;;;;;3.60;3.40;;;42.80;33.00;;;;;;4993602;28;20470;-61
2022/08/05 11:01:43;;;;;;;3.13;2.83;;;44.20;32.10;;;;;;4992535;28;20505;-61
2022/08/05 11:04:16;;;;;;;3.47;3.27;;;43.60;31.80;;;;;;4984670;28;20436;-61
2022/08/05 11:06:57;;;;;;;2.87;2.63;;;43.90;32.20;;;;;;4995022;28;20924;-60
2022/08/05 11:09:49;;;;;;;2.53;2.43;;;45.70;30.80;;;;;;4993963;28;20818;-60
2022/08/05 11:12:33;;;;;;;3.30;3.10;;;46.40;30.00;;;;;;4983278;28;20431;-61
2022/08/05 11:15:07;;;;;;;3.27;3.13;;;46.60;29.20;;;;;;4993335;28;20461;-61
2022/08/05 11:17:37;;;;;;;3.40;3.13;;;47.00;29.50;;;;;;4983274;28;20466;-62
2022/08/05 11:20:07;;;;;;;3.00;2.80;;;46.00;29.40;;;;;;4991243;28;20431;-61
2022/08/05 11:22:47;;;;;;;3.40;3.17;;;44.50;31.90;;;;;;4992808;28;20954;-64
2022/08/05 11:25:37;;;;;;;3.43;3.03;;;44.90;30.80;;;;;;4994556;28;20438;-63
2022/08/05 11:28:08;;;;;;;3.77;3.57;;;44.70;30.10;;;;;;4993907;28;20924;-64
2022/08/05 11:30:54;;;;;;;3.00;2.80;;;42.50;31.20;;;;;;4980753;28;20485;-63
2022/08/05 11:33:32;;;;;;;3.50;3.20;;;43.10;32.10;;;;;;4982836;28;20462;-63
2022/08/05 11:36:00;;;;;;;4.40;4.10;;;43.00;31.70;;;;;;4984596;28;20441;-63
2022/08/05 11:38:37;;;;;;;4.37;4.00;;;43.10;31.30;;;;;;4992998;28;20471;-63
2022/08/05 11:41:04;;;;;;;4.40;4.10;;;42.60;31.30;;;;;;4990010;28;20425;-63
2022/08/05 11:43:30;;;;;;;6.57;3.40;;;42.40;32.20;;;;;;4993364;28;20459;-63
2022/08/05 11:45:57;;;;;;;3.90;3.60;;;44.20;31.40;;;;;;4993183;28;20457;-63
2022/08/05 11:48:23;;;;;;;3.83;2.77;;;44.90;30.20;;;;;;4992911;28;20181;-63
2022/08/05 11:50:49;;;;;;;3.37;3.17;;;44.00;30.50;;;;;;4990693;28;20505;-62
2022/08/05 11:53:15;;;;;;;6.67;4.03;;;42.90;31.40;;;;;;4992549;28;20589;-62
2022/08/05 11:55:54;;;;;;;3.30;3.10;;;42.00;32.10;;;;;;4994293;28;20512;-63
2022/08/05 11:58:33;;;;;;;3.20;3.00;;;43.10;32.20;;;;;;4973281;28;21037;-62
2022/08/05 12:01:10;;;;;;;2.97;2.77;;;42.20;31.60;;;;;;4982554;28;20418;-63
2022/08/05 12:03:45;;;;;;;3.80;3.50;;;43.90;31.40;;;;;;4986818;28;20608;-63
2022/08/05 12:06:12;;;;;;;3.53;3.33;;;44.90;30.30;;;;;;4988735;28;20797;-63
2022/08/05 12:08:47;;;;;;;4.50;3.40;;;42.90;30.70;;;;;;4987638;28;20525;-63
2022/08/05 12:11:29;;;;;;;3.73;3.53;;;41.90;31.90;;;;;;4982288;28;20525;-63
2022/08/05 12:13:57;;;;;;;3.63;3.43;;;41.00;32.80;;;;;;4991544;28;20549;-68
2022/08/05 12:16:25;;;;;;;3.57;3.27;;;41.30;33.20;;;;;;4987239;28;20435;-63
2022/08/05 12:18:51;;;;;;;3.43;3.23;;;43.40;32.30;;;;;;4990976;28;20513;-62
2022/08/05 12:21:26;;;;;;;3.60;3.30;;;44.20;30.90;;;;;;4987109;28;20445;-63
2022/08/05 12:24:05;;;;;;;3.77;3.40;;;43.60;30.80;;;;;;4990269;28;20805;-63
2022/08/05 12:26:34;;;;;;;6.10;3.40;;;43.20;31.60;;;;;;4989196;28;20438;-64
2022/08/05 12:29:00;;;;;;;4.30;3.37;;;43.60;31.40;;;;;;4986198;28;20449;-64
2022/08/05 12:31:26;;;;;;;3.37;3.17;;;43.70;30.90;;;;;;4986774;28;20442;-64
2022/08/05 12:33:53;;;;;;;3.47;2.90;;;43.30;30.90;;;;;;4986275;28;20975;-64
2022/08/05 12:36:20;;;;;;;3.33;3.07;;;44.00;31.00;;;;;;4982931;28;20239;-64
2022/08/05 12:38:45;;;;;;;3.47;3.17;;;43.80;31.40;;;;;;4985992;28;20471;-64
2022/08/05 12:41:12;;;;;;;6.40;3.70;;;45.50;30.30;;;;;;4992308;28;20437;-64
2022/08/05 12:43:55;;;;;;;3.63;3.43;;;46.30;29.60;;;;;;4985747;28;20237;-63
2022/08/05 12:46:21;;;;;;;4.00;3.70;;;45.80;29.70;;;;;;4987851;28;20437;-65
2022/08/05 12:48:54;;;;;;;3.30;3.10;;;43.20;30.40;;;;;;4984601;28;20443;-66
2022/08/05 12:51:20;;;;;;;4.13;3.87;;;41.60;31.80;;;;;;4988053;28;20454;-65
2022/08/05 12:53:45;;;;;;;3.77;3.47;;;40.50;33.00;;;;;;4990481;28;20474;-63
2022/08/05 12:56:16;;;;;;;3.60;3.40;;;39.80;34.60;;;;;;4986950;28;20187;-63
2022/08/05 12:58:42;;;;;;;3.33;3.07;;;40.30;34.00;;;;;;4990185;28;20330;-64